Time;durP1;ratioP1;P1;durP2;ratioP2;P2;SDS_P1;SDS_P2;PMS_P1;PMS_P2;Temp;Humidity;BMP_temperature;BMP_pressure;BME280_temperature;BME280_humidity;BME280_pressure;Samples;Min_cycle;Max_cycle;Signal;HPM_P1;HPM_P2
2023/03/27 00:00:27;;;;;;;;;;;4.40;79.00;;;;;;5073598;28;19981;-29
2023/03/27 00:02:52;;;;;;;;;;;4.40;78.90;;;;;;5073567;28;19913;-41
2023/03/27 00:05:19;;;;;;;;;;;4.40;78.90;;;;;;5073338;28;19915;-27
2023/03/27 00:07:49;;;;;;;;;;;4.40;79.00;;;;;;5073221;28;20422;-27
2023/03/27 00:10:15;;;;;;;;;;;4.40;78.90;;;;;;5073490;28;20199;-31
2023/03/27 00:12:43;;;;;;;;;;;4.40;78.90;;;;;;5073257;28;19908;-27
2023/03/27 00:15:14;;;;;;;;;;;4.30;78.90;;;;;;5073062;28;19977;-28
2023/03/27 00:17:40;;;;;;;;;;;4.30;79.00;;;;;;5073147;28;19959;-26
2023/03/27 00:20:06;;;;;;;;;;;4.30;79.10;;;;;;5072866;28;19947;-28
2023/03/27 00:22:31;;;;;;;;;;;4.30;79.10;;;;;;5072814;28;19982;-37
2023/03/27 00:24:56;;;;;;;;;;;4.20;79.10;;;;;;5071559;28;19913;-30
2023/03/27 00:27:23;;;;;;;;;;;4.20;79.20;;;;;;5072798;28;20280;-27
2023/03/27 00:29:49;;;;;;;;;;;4.30;79.30;;;;;;5073520;28;19912;-26
2023/03/27 00:32:14;;;;;;;;;;;4.20;79.20;;;;;;5072778;28;19922;-33
2023/03/27 00:34:40;;;;;;;;;;;4.20;79.30;;;;;;5072787;28;20453;-32
2023/03/27 00:37:06;;;;;;;;;;;4.20;79.30;;;;;;5072881;28;19943;-28
2023/03/27 00:39:31;;;;;;;;;;;4.20;79.40;;;;;;5072677;28;20407;-30
2023/03/27 00:41:57;;;;;;;;;;;4.20;79.40;;;;;;5072538;28;19923;-26
2023/03/27 00:44:22;;;;;;;;;;;4.20;79.40;;;;;;5072876;28;19931;-28
2023/03/27 00:46:48;;;;;;;;;;;4.20;79.50;;;;;;5072443;28;19908;-29
2023/03/27 00:49:14;;;;;;;;;;;4.20;79.50;;;;;;5072612;28;19909;-31
2023/03/27 00:51:41;;;;;;;;;;;4.20;79.60;;;;;;5071026;28;19917;-27
2023/03/27 00:54:07;;;;;;;;;;;4.10;79.60;;;;;;5072835;28;20045;-29
2023/03/27 00:56:32;;;;;;;;;;;4.10;79.60;;;;;;5072233;28;20220;-28
2023/03/27 00:59:03;;;;;;;;;;;4.10;79.70;;;;;;5071663;28;20252;-41
2023/03/27 01:01:29;;;;;;;;;;;4.10;79.70;;;;;;5072406;28;19965;-31
2023/03/27 01:03:57;;;;;;;;;;;4.10;79.70;;;;;;5072177;28;19912;-27
2023/03/27 01:06:22;;;;;;;;;;;4.10;79.80;;;;;;5072249;28;19909;-27
2023/03/27 01:08:48;;;;;;;;;;;4.10;79.80;;;;;;5071916;28;19912;-27
2023/03/27 01:11:32;;;;;;;;;;;4.10;79.90;;;;;;5072104;28;20268;-27
2023/03/27 01:13:57;;;;;;;;;;;4.10;79.90;;;;;;5071969;28;20319;-26
2023/03/27 01:16:43;;;;;;;;;;;4.10;80.00;;;;;;5071927;28;19915;-27
2023/03/27 01:19:23;;;;;;;;;;;4.10;80.00;;;;;;5071433;28;19912;-29
2023/03/27 01:22:00;;;;;;;;;;;4.10;80.10;;;;;;5071822;28;19990;-27
2023/03/27 01:24:31;;;;;;;;;;;4.10;80.20;;;;;;5071873;28;19909;-28
2023/03/27 01:27:00;;;;;;;;;;;4.10;80.20;;;;;;5072169;28;20249;-26
2023/03/27 01:29:40;;;;;;;;;;;4.10;80.20;;;;;;5071839;28;20003;-26
2023/03/27 01:32:18;;;;;;;;;;;4.00;80.30;;;;;;5071776;28;19908;-29
2023/03/27 01:35:02;;;;;;;;;;;4.10;80.30;;;;;;5071525;28;20356;-27
2023/03/27 01:37:50;;;;;;;;;;;4.10;80.40;;;;;;5071761;28;20303;-27
2023/03/27 01:40:25;;;;;;;;;;;4.10;80.40;;;;;;5070549;28;19958;-27
2023/03/27 01:42:54;;;;;;;;;;;4.10;80.50;;;;;;5071619;28;20371;-27
2023/03/27 01:45:26;;;;;;;;;;;4.10;80.50;;;;;;5071716;28;19981;-27
2023/03/27 01:48:04;;;;;;;;;;;4.10;80.50;;;;;;5071320;28;19915;-27
2023/03/27 01:50:32;;;;;;;;;;;4.10;80.50;;;;;;5071585;28;19908;-27
2023/03/27 01:53:00;;;;;;;;;;;4.10;80.50;;;;;;5071278;28;19951;-28
2023/03/27 01:55:28;;;;;;;;;;;4.10;80.50;;;;;;5071538;28;19920;-29
2023/03/27 01:57:59;;;;;;;;;;;4.20;80.60;;;;;;5071206;28;19910;-31
2023/03/27 02:00:26;;;;;;;;;;;4.20;80.50;;;;;;5071440;28;19915;-28
2023/03/27 02:02:56;;;;;;;;;;;4.20;80.50;;;;;;5071093;28;20379;-31
2023/03/27 02:05:26;;;;;;;;;;;4.20;80.40;;;;;;5071020;28;19943;-32
2023/03/27 02:07:56;;;;;;;;;;;4.20;80.50;;;;;;5070697;28;19909;-46
2023/03/27 02:10:27;;;;;;;;;;;4.20;80.50;;;;;;5071049;28;19908;-43
2023/03/27 02:12:55;;;;;;;;;;;4.20;80.50;;;;;;5074877;28;19908;-33
2023/03/27 02:15:22;;;;;;;;;;;4.20;80.40;;;;;;5074862;28;19916;-34
2023/03/27 02:17:51;;;;;;;;;;;4.20;80.50;;;;;;5074611;28;19913;-44
2023/03/27 02:20:16;;;;;;;;;;;4.20;80.50;;;;;;5074619;28;19918;-48
2023/03/27 02:22:44;;;;;;;;;;;4.20;80.50;;;;;;5075281;28;19921;-29
2023/03/27 02:25:28;;;;;;;;;;;4.20;80.50;;;;;;5075147;28;19916;-26
2023/03/27 02:28:12;;;;;;;;;;;4.20;80.60;;;;;;5075270;28;19931;-29
2023/03/27 02:30:56;;;;;;;;;;;4.20;80.70;;;;;;5074816;28;19916;-28
2023/03/27 02:33:29;;;;;;;;;;;4.20;80.80;;;;;;5075174;28;19912;-26
2023/03/27 02:36:00;;;;;;;;;;;4.10;80.90;;;;;;5074723;28;19920;-31
2023/03/27 02:38:44;;;;;;;;;;;4.10;81.10;;;;;;5074515;28;19908;-28
2023/03/27 02:41:22;;;;;;;;;;;4.10;81.30;;;;;;5074654;28;20360;-27
2023/03/27 02:43:53;;;;;;;;;;;4.10;81.30;;;;;;5072967;28;19913;-27
2023/03/27 02:46:19;;;;;;;;;;;4.00;81.30;;;;;;5074367;28;19916;-27
2023/03/27 02:48:46;;;;;;;;;;;4.00;81.50;;;;;;5074562;28;20280;-26
2023/03/27 02:51:32;;;;;;;;;;;4.00;81.50;;;;;;5074245;28;19920;-31
2023/03/27 02:54:05;;;;;;;;;;;3.90;81.60;;;;;;5074206;28;19912;-29
2023/03/27 02:56:33;;;;;;;;;;;3.90;81.70;;;;;;5074299;28;19909;-29
2023/03/27 02:59:02;;;;;;;;;;;3.90;81.80;;;;;;5074174;28;20252;-34
2023/03/27 03:01:31;;;;;;;;;;;3.90;81.90;;;;;;5074156;28;20020;-26
2023/03/27 03:04:09;;;;;;;;;;;3.80;82.00;;;;;;5074594;28;19908;-27
2023/03/27 03:06:35;;;;;;;;;;;3.80;82.00;;;;;;5073987;28;19916;-30
2023/03/27 03:09:04;;;;;;;;;;;3.80;82.10;;;;;;5073909;28;20050;-26
2023/03/27 03:11:30;;;;;;;;;;;3.80;82.20;;;;;;5074355;28;19916;-26
2023/03/27 03:13:56;;;;;;;;;;;3.80;82.30;;;;;;5074191;28;19909;-27
2023/03/27 03:16:22;;;;;;;;;;;3.80;82.40;;;;;;5074335;28;19908;-27
2023/03/27 03:18:48;;;;;;;;;;;3.70;82.40;;;;;;5074131;28;19912;-34
2023/03/27 03:21:14;;;;;;;;;;;3.70;82.40;;;;;;5072944;28;20319;-30
2023/03/27 03:23:39;;;;;;;;;;;3.80;82.60;;;;;;5074302;28;19920;-33
2023/03/27 03:26:05;;;;;;;;;;;3.80;82.70;;;;;;5073932;28;19908;-26
2023/03/27 03:28:33;;;;;;;;;;;3.80;82.70;;;;;;5074335;28;20385;-26
2023/03/27 03:31:01;;;;;;;;;;;3.80;82.70;;;;;;5074189;28;20260;-26
2023/03/27 03:33:28;;;;;;;;;;;3.80;82.70;;;;;;5074067;28;19932;-27
2023/03/27 03:35:57;;;;;;;;;;;3.80;82.70;;;;;;5073850;28;19916;-44
2023/03/27 03:38:26;;;;;;;;;;;3.80;82.70;;;;;;5073771;28;19948;-27
2023/03/27 03:40:52;;;;;;;;;;;3.90;82.70;;;;;;5073804;28;19915;-26
2023/03/27 03:43:18;;;;;;;;;;;3.90;82.80;;;;;;5073940;28;19912;-28
2023/03/27 03:45:43;;;;;;;;;;;3.90;82.70;;;;;;5073759;28;20339;-31
2023/03/27 03:48:09;;;;;;;;;;;4.00;82.70;;;;;;5073569;28;19909;-27
2023/03/27 03:50:34;;;;;;;;;;;4.00;82.60;;;;;;5074002;28;20361;-27
2023/03/27 03:53:00;;;;;;;;;;;4.00;82.60;;;;;;5073756;28;19908;-26
2023/03/27 03:55:25;;;;;;;;;;;4.00;82.60;;;;;;5073447;28;19987;-29
2023/03/27 03:57:51;;;;;;;;;;;4.00;82.60;;;;;;5073423;28;20379;-27
2023/03/27 04:00:17;;;;;;;;;;;4.00;82.60;;;;;;5073480;28;20041;-28
2023/03/27 04:02:43;;;;;;;;;;;4.00;82.60;;;;;;5073689;28;19920;-38
2023/03/27 04:05:08;;;;;;;;;;;4.00;82.50;;;;;;5073559;28;20245;-30
2023/03/27 04:07:34;;;;;;;;;;;4.00;82.60;;;;;;5073269;28;20324;-27
2023/03/27 04:10:00;;;;;;;;;;;3.90;82.70;;;;;;5073178;28;19958;-28
2023/03/27 04:12:26;;;;;;;;;;;3.90;82.80;;;;;;5073258;28;20003;-27
2023/03/27 04:14:52;;;;;;;;;;;3.80;83.30;;;;;;5073220;28;20352;-27
2023/03/27 04:17:18;;;;;;;;;;;3.60;83.40;;;;;;5072931;28;19916;-34
2023/03/27 04:19:46;;;;;;;;;;;3.40;83.40;;;;;;5072934;28;19916;-27
2023/03/27 04:22:12;;;;;;;;;;;3.40;83.90;;;;;;5072777;28;20351;-27
2023/03/27 04:24:38;;;;;;;;;;;3.30;84.00;;;;;;5072822;28;19913;-28
2023/03/27 04:27:04;;;;;;;;;;;3.30;84.10;;;;;;5072877;28;19931;-27
2023/03/27 04:29:30;;;;;;;;;;;3.30;84.20;;;;;;5072644;28;19915;-27
2023/03/27 04:31:56;;;;;;;;;;;3.30;84.30;;;;;;5072656;28;19909;-30
2023/03/27 04:34:23;;;;;;;;;;;3.30;84.50;;;;;;5072570;28;19962;-26
2023/03/27 04:36:51;;;;;;;;;;;3.30;84.50;;;;;;5072844;28;19915;-27
2023/03/27 04:39:17;;;;;;;;;;;3.40;84.60;;;;;;5072720;28;20067;-29
2023/03/27 04:41:49;;;;;;;;;;;3.40;84.50;;;;;;5072484;28;19999;-40
2023/03/27 04:44:18;;;;;;;;;;;3.40;84.50;;;;;;5072532;28;19909;-31
2023/03/27 04:46:50;;;;;;;;;;;3.40;84.60;;;;;;5072504;28;19962;-31
2023/03/27 04:49:19;;;;;;;;;;;3.40;84.70;;;;;;5072482;28;20437;-33
2023/03/27 04:51:45;;;;;;;;;;;3.40;85.40;;;;;;5072329;28;19909;-35
2023/03/27 04:54:10;;;;;;;;;;;3.30;84.80;;;;;;5072274;28;19909;-27
2023/03/27 04:56:36;;;;;;;;;;;3.30;84.90;;;;;;5072358;28;19934;-28
2023/03/27 04:59:05;;;;;;;;;;;3.30;84.90;;;;;;5072331;28;19908;-28
2023/03/27 05:01:30;;;;;;;;;;;3.30;84.90;;;;;;5072189;28;19912;-31
2023/03/27 05:03:56;;;;;;;;;;;3.20;84.90;;;;;;5072136;28;20279;-33
2023/03/27 05:06:22;;;;;;;;;;;3.20;85.10;;;;;;5072188;28;20406;-28
2023/03/27 05:08:47;;;;;;;;;;;3.20;85.10;;;;;;5072001;28;19915;-28
2023/03/27 05:11:13;;;;;;;;;;;3.20;85.20;;;;;;5072073;28;20276;-31
2023/03/27 05:13:39;;;;;;;;;;;3.20;85.20;;;;;;5072035;28;19916;-29
2023/03/27 05:16:04;;;;;;;;;;;3.20;85.30;;;;;;5072146;28;19915;-28
2023/03/27 05:18:30;;;;;;;;;;;3.20;85.30;;;;;;5072378;28;19915;-29
2023/03/27 05:20:56;;;;;;;;;;;3.10;85.30;;;;;;5071937;28;19919;-28
2023/03/27 05:23:22;;;;;;;;;;;3.10;85.40;;;;;;5072365;28;20077;-27
2023/03/27 05:25:47;;;;;;;;;;;3.10;85.50;;;;;;5071931;28;19947;-28
2023/03/27 05:28:13;;;;;;;;;;;3.10;85.50;;;;;;5072339;28;19913;-31
2023/03/27 05:30:41;;;;;;;;;;;3.20;85.60;;;;;;5072281;28;20288;-28
2023/03/27 05:33:06;;;;;;;;;;;3.20;85.70;;;;;;5072158;28;20438;-30
2023/03/27 05:35:33;;;;;;;;;;;3.20;85.50;;;;;;5072240;28;19916;-27
2023/03/27 05:37:59;;;;;;;;;;;3.20;85.90;;;;;;5071860;28;20245;-30
2023/03/27 05:40:25;;;;;;;;;;;3.20;85.60;;;;;;5071947;28;19971;-30
2023/03/27 05:42:52;;;;;;;;;;;3.20;85.60;;;;;;5071762;28;19920;-26
2023/03/27 05:45:18;;;;;;;;;;;3.20;85.60;;;;;;5071241;28;19916;-30
2023/03/27 05:47:48;;;;;;;;;;;3.20;85.70;;;;;;5071710;28;19912;-30
2023/03/27 05:50:14;;;;;;;;;;;3.20;85.90;;;;;;5071916;28;19921;-28
2023/03/27 05:52:40;;;;;;;;;;;3.10;85.80;;;;;;5071787;28;19913;-33
2023/03/27 05:55:06;;;;;;;;;;;3.20;85.90;;;;;;5071599;28;19913;-28
2023/03/27 05:57:35;;;;;;;;;;;3.20;85.90;;;;;;5071885;28;19935;-28
2023/03/27 06:00:00;;;;;;;;;;;3.20;86.00;;;;;;5071481;28;19991;-26
2023/03/27 06:02:26;;;;;;;;;;;3.20;86.00;;;;;;5071650;28;20263;-27
2023/03/27 06:04:52;;;;;;;;;;;3.20;86.00;;;;;;5071541;28;19913;-30
2023/03/27 06:07:17;;;;;;;;;;;3.30;86.00;;;;;;5071318;28;19924;-30
2023/03/27 06:09:44;;;;;;;;;;;3.30;86.00;;;;;;5071423;28;19955;-28
2023/03/27 06:12:10;;;;;;;;;;;3.30;86.00;;;;;;5071541;28;19912;-30
2023/03/27 06:14:35;;;;;;;;;;;3.30;86.00;;;;;;5071466;28;19912;-29
2023/03/27 06:17:01;;;;;;;;;;;3.30;86.00;;;;;;5071411;28;19912;-26
2023/03/27 06:19:26;;;;;;;;;;;3.40;86.00;;;;;;5071422;28;20077;-27
2023/03/27 06:21:52;;;;;;;;;;;3.40;86.10;;;;;;5071201;28;19943;-28
2023/03/27 06:24:17;;;;;;;;;;;3.40;86.00;;;;;;5071415;28;19967;-27
2023/03/27 06:26:43;;;;;;;;;;;3.50;86.00;;;;;;5071306;28;20326;-28
2023/03/27 06:29:09;;;;;;;;;;;3.50;86.00;;;;;;5071332;28;19958;-29
2023/03/27 06:31:35;;;;;;;;;;;3.50;86.00;;;;;;5071424;28;19912;-28
2023/03/27 06:34:00;;;;;;;;;;;3.60;86.00;;;;;;5071310;28;20364;-29
2023/03/27 06:36:26;;;;;;;;;;;3.60;86.00;;;;;;5071260;28;21114;-28
2023/03/27 06:38:53;;;;;;;;;;;3.60;85.90;;;;;;5071564;28;19962;-26
2023/03/27 06:41:19;;;;;;;;;;;3.70;85.90;;;;;;5071147;28;19931;-39
2023/03/27 06:43:45;;;;;;;;;;;3.80;86.00;;;;;;5071306;28;19917;-29
2023/03/27 06:46:10;;;;;;;;;;;3.80;86.20;;;;;;5071102;28;19954;-26
2023/03/27 06:48:36;;;;;;;;;;;3.90;86.00;;;;;;5071113;28;19959;-28
2023/03/27 06:51:02;;;;;;;;;;;3.90;85.90;;;;;;5071066;28;19970;-27
2023/03/27 06:53:28;;;;;;;;;;;4.00;85.90;;;;;;5071056;28;19917;-29
2023/03/27 06:55:54;;;;;;;;;;;4.10;85.70;;;;;;5071167;28;20388;-26
2023/03/27 06:58:20;;;;;;;;;;;4.10;85.50;;;;;;5074077;28;19916;-31
2023/03/27 07:00:47;;;;;;;;;;;4.20;85.40;;;;;;5074826;28;20014;-26
2023/03/27 07:03:13;;;;;;;;;;;4.20;85.20;;;;;;5074765;28;19917;-25
2023/03/27 07:05:40;;;;;;;;;;;4.20;85.20;;;;;;5074400;28;20296;-31
2023/03/27 07:08:10;;;;;;;;;;;4.10;85.20;;;;;;5074438;28;19916;-26
2023/03/27 07:10:35;;;;;;;;;;;4.10;85.20;;;;;;5074382;28;20436;-37
2023/03/27 07:13:01;;;;;;;;;;;4.10;85.30;;;;;;5074703;28;19944;-33
2023/03/27 07:15:26;;;;;;;;;;;4.10;85.30;;;;;;5074322;28;19920;-26
2023/03/27 07:17:59;;;;;;;;;;;4.20;85.30;;;;;;5074636;28;19912;-32
2023/03/27 07:20:27;;;;;;;;;;;4.20;85.30;;;;;;5074409;28;19912;-28
2023/03/27 07:22:54;;;;;;;;;;;4.20;85.30;;;;;;5074033;28;20392;-28
2023/03/27 07:25:20;;;;;;;;;;;4.30;85.30;;;;;;5074021;28;20372;-29
2023/03/27 07:27:45;;;;;;;;;;;4.30;85.20;;;;;;5074385;28;19912;-29
2023/03/27 07:30:12;;;;;;;;;;;4.40;85.10;;;;;;5074028;28;20292;-27
2023/03/27 07:32:41;;;;;;;;;;;4.40;85.10;;;;;;5074101;28;20447;-27
2023/03/27 07:35:07;;;;;;;;;;;4.50;85.00;;;;;;5073967;28;20461;-31
2023/03/27 07:37:35;;;;;;;;;;;4.60;84.90;;;;;;5073962;28;19967;-26
2023/03/27 07:40:00;;;;;;;;;;;4.60;84.80;;;;;;5074211;28;19913;-27
2023/03/27 07:42:26;;;;;;;;;;;4.70;84.80;;;;;;5073813;28;19938;-27
2023/03/27 07:44:51;;;;;;;;;;;4.80;84.70;;;;;;5074088;28;19913;-27
2023/03/27 07:47:17;;;;;;;;;;;4.90;84.60;;;;;;5072372;28;19920;-28
2023/03/27 07:49:42;;;;;;;;;;;4.90;84.50;;;;;;5073669;28;19919;-30
2023/03/27 07:52:08;;;;;;;;;;;5.00;84.30;;;;;;5073545;28;19913;-30
2023/03/27 07:54:34;;;;;;;;;;;5.10;84.10;;;;;;5073941;28;19912;-26
2023/03/27 07:57:00;;;;;;;;;;;5.10;83.80;;;;;;5073549;28;19961;-31
2023/03/27 07:59:26;;;;;;;;;;;5.10;83.50;;;;;;5073455;28;19912;-30
2023/03/27 08:01:52;;;;;;;;;;;5.20;83.50;;;;;;5073420;28;19917;-45
2023/03/27 08:04:18;;;;;;;;;;;5.30;83.50;;;;;;5073374;28;19912;-29
2023/03/27 08:06:43;;;;;;;;;;;5.30;83.10;;;;;;5073343;28;19913;-28
2023/03/27 08:09:09;;;;;;;;;;;5.40;83.20;;;;;;5072810;28;19920;-31
2023/03/27 08:11:37;;;;;;;;;;;5.40;82.90;;;;;;5073287;28;20280;-26
2023/03/27 08:14:03;;;;;;;;;;;5.40;82.90;;;;;;5073243;28;19920;-27
2023/03/27 08:16:29;;;;;;;;;;;5.40;82.70;;;;;;5073059;28;19912;-35
2023/03/27 08:18:54;;;;;;;;;;;5.40;82.20;;;;;;5073029;28;19920;-27
2023/03/27 08:21:20;;;;;;;;;;;5.50;81.90;;;;;;5072826;28;19926;-28
2023/03/27 08:23:46;;;;;;;;;;;5.50;82.10;;;;;;5073180;28;19985;-28
2023/03/27 08:26:12;;;;;;;;;;;5.60;81.60;;;;;;5073182;28;20352;-32
2023/03/27 08:28:38;;;;;;;;;;;5.70;82.40;;;;;;5072851;28;19913;-33
2023/03/27 08:31:14;;;;;;;;;;;5.80;81.80;;;;;;5072892;28;19913;-32
2023/03/27 08:33:40;;;;;;;;;;;5.90;81.10;;;;;;5072820;28;20393;-31
2023/03/27 08:36:06;;;;;;;;;;;6.10;80.90;;;;;;5072853;28;19990;-29
2023/03/27 08:38:32;;;;;;;;;;;6.10;80.30;;;;;;5072633;28;19912;-28
2023/03/27 08:40:59;;;;;;;;;;;6.30;80.70;;;;;;5072604;28;19971;-29
2023/03/27 08:43:32;;;;;;;;;;;6.50;80.00;;;;;;5072706;28;19913;-29
2023/03/27 08:46:02;;;;;;;;;;;6.70;79.90;;;;;;5072643;28;19912;-28
2023/03/27 08:48:36;;;;;;;;;;;6.90;78.50;;;;;;5072466;28;19912;-27
2023/03/27 08:51:05;;;;;;;;;;;6.80;76.70;;;;;;5072416;28;19912;-27
2023/03/27 08:53:36;;;;;;;;;;;6.70;76.90;;;;;;5072302;28;19939;-27
2023/03/27 08:56:02;;;;;;;;;;;6.30;77.10;;;;;;5072298;28;19912;-29
2023/03/27 08:58:28;;;;;;;;;;;5.80;78.30;;;;;;5072232;28;19919;-30
2023/03/27 09:01:03;;;;;;;;;;;5.40;79.30;;;;;;5072285;28;19916;-27
2023/03/27 09:03:35;;;;;;;;;;;5.10;80.20;;;;;;5072382;28;19919;-31
2023/03/27 09:06:05;;;;;;;;;;;4.90;81.10;;;;;;5072446;28;20373;-26
2023/03/27 09:08:33;;;;;;;;;;;4.80;81.50;;;;;;5072317;28;19939;-29
2023/03/27 09:11:03;;;;;;;;;;;4.70;82.00;;;;;;5072105;28;19947;-31
2023/03/27 09:13:48;;;;;;;;;;;4.70;82.20;;;;;;5071950;28;20387;-28
2023/03/27 09:16:24;;;;;;;;;;;4.80;82.90;;;;;;5072061;28;19920;-28
2023/03/27 09:19:08;;;;;;;;;;;4.80;82.70;;;;;;5071665;28;19913;-31
2023/03/27 09:21:33;;;;;;;;;;;4.90;82.60;;;;;;5071820;28;20403;-26
2023/03/27 09:24:01;;;;;;;;;;;4.90;82.70;;;;;;5071847;28;19999;-26
2023/03/27 09:26:29;;;;;;;;;;;5.00;82.70;;;;;;5072033;28;19955;-27
2023/03/27 09:28:57;;;;;;;;;;;5.10;82.50;;;;;;5071882;28;19955;-26
2023/03/27 09:31:28;;;;;;;;;;;5.10;82.50;;;;;;5071860;28;19999;-27
2023/03/27 09:33:54;;;;;;;;;;;5.20;82.50;;;;;;5071960;28;19919;-27
2023/03/27 09:36:20;;;;;;;;;;;5.30;82.40;;;;;;5071713;28;19919;-27
2023/03/27 09:38:50;;;;;;;;;;;5.50;82.30;;;;;;5071932;28;19912;-27
2023/03/27 09:41:23;;;;;;;;;;;5.60;82.10;;;;;;5071932;28;20364;-31
2023/03/27 09:43:52;;;;;;;;;;;5.80;81.80;;;;;;5071963;28;19959;-27
2023/03/27 09:46:19;;;;;;;;;;;5.90;81.30;;;;;;5071702;28;19951;-28
2023/03/27 09:48:49;;;;;;;;;;;6.10;80.80;;;;;;5071870;28;19912;-29
2023/03/27 09:51:33;;;;;;;;;;;6.30;79.70;;;;;;5071780;28;19920;-26
2023/03/27 09:53:58;;;;;;;;;;;6.60;78.80;;;;;;5071927;28;20015;-36
2023/03/27 09:56:24;;;;;;;;;;;6.70;77.00;;;;;;5071716;28;19944;-27
2023/03/27 09:58:50;;;;;;;;;;;6.80;75.60;;;;;;5071971;28;20372;-45
2023/03/27 10:01:18;;;;;;;;;;;6.90;73.80;;;;;;5071575;28;19967;-31
2023/03/27 10:03:51;;;;;;;;;;;6.90;74.00;;;;;;5071860;28;19908;-25
2023/03/27 10:06:25;;;;;;;;;;;6.90;74.80;;;;;;5071609;28;19913;-28
2023/03/27 10:08:50;;;;;;;;;;;6.80;75.20;;;;;;5071546;28;19922;-29
2023/03/27 10:11:19;;;;;;;;;;;6.50;76.20;;;;;;5071624;28;20303;-27
2023/03/27 10:13:46;;;;;;;;;;;6.10;76.80;;;;;;5071559;28;19943;-30
2023/03/27 10:16:16;;;;;;;;;;;5.90;77.70;;;;;;5071437;28;19908;-26
2023/03/27 10:18:53;;;;;;;;;;;5.60;78.40;;;;;;5071693;28;19909;-29
2023/03/27 10:21:38;;;;;;;;;;;5.50;79.10;;;;;;5071197;28;19973;-31
2023/03/27 10:24:05;;;;;;;;;;;5.40;79.70;;;;;;5071395;28;19912;-26
2023/03/27 10:26:32;;;;;;;;;;;5.50;80.10;;;;;;5071438;28;20062;-27
2023/03/27 10:29:00;;;;;;;;;;;5.60;80.20;;;;;;5071270;28;19935;-29
2023/03/27 10:31:30;;;;;;;;;;;5.70;80.30;;;;;;5073578;28;20419;-26
2023/03/27 10:33:56;;;;;;;;;;;5.80;80.40;;;;;;5075168;28;20046;-26
2023/03/27 10:36:23;;;;;;;;;;;5.90;80.00;;;;;;5074181;28;19909;-27
2023/03/27 10:39:10;;;;;;;;;;;6.10;79.90;;;;;;5075074;28;19916;-27
2023/03/27 10:41:36;;;;;;;;;;;6.20;79.40;;;;;;5074766;28;19917;-27
2023/03/27 10:44:12;;;;;;;;;;;6.40;78.90;;;;;;5074966;28;19959;-28
2023/03/27 10:46:38;;;;;;;;;;;6.50;78.30;;;;;;5075014;28;19908;-34
2023/03/27 10:49:06;;;;;;;;;;;6.80;77.20;;;;;;5074979;28;19909;-26
2023/03/27 10:51:52;;;;;;;;;;;7.00;76.60;;;;;;5074745;28;19993;-27
2023/03/27 10:54:36;;;;;;;;;;;7.10;75.80;;;;;;5074547;28;20011;-27
2023/03/27 10:57:21;;;;;;;;;;;7.30;75.50;;;;;;5074786;28;20265;-27
2023/03/27 10:59:50;;;;;;;;;;;7.50;75.20;;;;;;5075010;28;19908;-31
2023/03/27 11:02:16;;;;;;;;;;;7.70;74.00;;;;;;5074487;28;19912;-28
2023/03/27 11:04:49;;;;;;;;;;;7.70;72.00;;;;;;5074890;28;19909;-26
2023/03/27 11:07:40;;;;;;;;;;;7.80;71.00;;;;;;5074607;28;19915;-27
2023/03/27 11:10:13;;;;;;;;;;;7.90;70.60;;;;;;5074105;28;19908;-29
2023/03/27 11:12:39;;;;;;;;;;;7.90;67.20;;;;;;5074820;28;19908;-29
2023/03/27 11:15:14;;;;;;;;;;;7.90;67.70;;;;;;5074714;28;19995;-27
2023/03/27 11:17:42;;;;;;;;;;;8.00;67.60;;;;;;5073095;28;20112;-27
2023/03/27 11:20:16;;;;;;;;;;;8.00;68.40;;;;;;5074384;28;20368;-28
2023/03/27 11:22:44;;;;;;;;;;;8.10;66.40;;;;;;5072768;28;20408;-28
2023/03/27 11:25:13;;;;;;;;;;;8.10;67.80;;;;;;5074348;28;19950;-32
2023/03/27 11:27:59;;;;;;;;;;;8.20;65.30;;;;;;5074299;28;20030;-30
2023/03/27 11:30:24;;;;;;;;;;;8.20;65.60;;;;;;5073473;28;19909;-27
2023/03/27 11:33:00;;;;;;;;;;;8.10;66.10;;;;;;5074039;28;19955;-28
2023/03/27 11:35:32;;;;;;;;;;;8.20;66.60;;;;;;5074144;28;19981;-26
2023/03/27 11:37:58;;;;;;;;;;;8.30;66.10;;;;;;5074365;28;19916;-27
2023/03/27 11:40:38;;;;;;;;;;;8.30;66.60;;;;;;5074320;28;19909;-26
2023/03/27 11:43:04;;;;;;;;;;;8.30;66.00;;;;;;5073109;28;19963;-26
2023/03/27 11:45:52;;;;;;;;;;;8.00;67.50;;;;;;5073945;28;19912;-35
2023/03/27 11:48:32;;;;;;;;;;;7.60;69.00;;;;;;5073881;28;19982;-26
2023/03/27 11:51:33;;;;;;;;;;;7.20;70.40;;;;;;5073804;28;19913;-26
2023/03/27 11:54:04;;;;;;;;;;;6.90;71.50;;;;;;5071326;28;19958;-26
2023/03/27 11:56:42;;;;;;;;;;;6.70;72.30;;;;;;5073471;28;20249;-28
2023/03/27 11:59:08;;;;;;;;;;;6.50;72.80;;;;;;5073924;28;19919;-28
2023/03/27 12:01:34;;;;;;;;;;;6.40;73.50;;;;;;5073594;28;19919;-26
2023/03/27 12:04:17;;;;;;;;;;;6.40;73.90;;;;;;5073613;28;19908;-30
2023/03/27 12:06:46;;;;;;;;;;;6.50;74.10;;;;;;5073518;28;19944;-27
2023/03/27 12:09:20;;;;;;;;;;;6.60;73.70;;;;;;5073390;28;20376;-30
2023/03/27 12:11:53;;;;;;;;;;;6.80;70.80;;;;;;5073436;28;19908;-27
2023/03/27 12:14:37;;;;;;;;;;;7.00;69.30;;;;;;5071951;28;19909;-26
2023/03/27 12:17:12;;;;;;;;;;;7.20;68.30;;;;;;5073505;28;19968;-30
2023/03/27 12:19:46;;;;;;;;;;;7.40;63.70;;;;;;5073334;28;19909;-28
2023/03/27 12:22:33;;;;;;;;;;;7.50;63.30;;;;;;5072950;28;20378;-29
2023/03/27 12:24:58;;;;;;;;;;;7.70;63.60;;;;;;5073200;28;20348;-27
2023/03/27 12:27:43;;;;;;;;;;;7.80;60.90;;;;;;5072900;28;19947;-26
2023/03/27 12:30:16;;;;;;;;;;;7.90;60.90;;;;;;5073065;28;19909;-31
2023/03/27 12:32:58;;;;;;;;;;;7.90;60.70;;;;;;5072983;28;20261;-27
2023/03/27 12:35:25;;;;;;;;;;;8.00;59.90;;;;;;5073490;28;19912;-27
2023/03/27 12:37:59;;;;;;;;;;;8.10;61.40;;;;;;5072762;28;19909;-27
2023/03/27 12:40:36;;;;;;;;;;;8.20;62.60;;;;;;5072801;28;19912;-27
2023/03/27 12:43:16;;;;;;;;;;;8.20;61.30;;;;;;5072328;28;19913;-27
2023/03/27 12:46:02;;;;;;;;;;;8.30;62.60;;;;;;5072713;28;19916;-28
2023/03/27 12:48:27;;;;;;;;;;;8.50;61.70;;;;;;5072563;28;19912;-27
2023/03/27 12:50:54;;;;;;;;;;;8.60;61.90;;;;;;5072531;28;19915;-32
2023/03/27 12:53:26;;;;;;;;;;;8.70;62.80;;;;;;5072482;28;20376;-28
2023/03/27 12:56:11;;;;;;;;;;;8.90;62.30;;;;;;5072422;28;19909;-27
2023/03/27 12:58:37;;;;;;;;;;;9.10;58.90;;;;;;5071082;28;19915;-27
2023/03/27 13:01:06;;;;;;;;;;;9.20;59.40;;;;;;5072493;28;19909;-26
2023/03/27 13:03:44;;;;;;;;;;;9.20;61.30;;;;;;5072287;28;19991;-32
2023/03/27 13:06:21;;;;;;;;;;;9.00;63.00;;;;;;5072256;28;19915;-36
2023/03/27 13:08:51;;;;;;;;;;;8.80;63.80;;;;;;5072242;28;19974;-25
2023/03/27 13:11:16;;;;;;;;;;;8.60;65.00;;;;;;5072252;28;19995;-29
2023/03/27 13:13:41;;;;;;;;;;;8.40;65.50;;;;;;5072311;28;20002;-27
2023/03/27 13:16:07;;;;;;;;;;;8.20;66.10;;;;;;5072250;28;19913;-27
2023/03/27 13:18:38;;;;;;;;;;;8.10;66.20;;;;;;5072368;28;19913;-26
2023/03/27 13:21:07;;;;;;;;;;;7.80;66.80;;;;;;5071879;28;20299;-41
2023/03/27 13:23:35;;;;;;;;;;;7.60;67.10;;;;;;5072075;28;20411;-26
2023/03/27 13:26:01;;;;;;;;;;;7.60;67.60;;;;;;5071044;28;19960;-39
2023/03/27 13:28:37;;;;;;;;;;;7.80;65.60;;;;;;5072175;28;19916;-26
2023/03/27 13:31:04;;;;;;;;;;;7.90;64.70;;;;;;5071973;28;19912;-27
2023/03/27 13:33:30;;;;;;;;;;;8.00;64.70;;;;;;5070564;28;19970;-31
2023/03/27 13:36:16;;;;;;;;;;;8.00;64.70;;;;;;5071883;28;19916;-26
2023/03/27 13:38:43;;;;;;;;;;;8.00;64.70;;;;;;5071747;28;20288;-37
2023/03/27 13:41:27;;;;;;;;;;;8.10;65.20;;;;;;5071647;28;19920;-32
2023/03/27 13:43:53;;;;;;;;;;;8.10;64.70;;;;;;5071649;28;19913;-30
2023/03/27 13:46:23;;;;;;;;;;;8.20;64.70;;;;;;5071621;28;19913;-32
2023/03/27 13:48:51;;;;;;;;;;;8.40;64.30;;;;;;5071611;28;20324;-26
2023/03/27 13:51:25;;;;;;;;;;;8.50;62.70;;;;;;5071731;28;19916;-27
2023/03/27 13:54:11;;;;;;;;;;;8.60;62.50;;;;;;5070328;28;20377;-27
2023/03/27 13:56:59;;;;;;;;;;;8.70;62.10;;;;;;5071709;28;19916;-27
2023/03/27 13:59:26;;;;;;;;;;;8.80;62.40;;;;;;5071643;28;19935;-27
2023/03/27 14:02:10;;;;;;;;;;;9.00;60.30;;;;;;5071576;28;19925;-27
2023/03/27 14:04:59;;;;;;;;;;;9.00;59.00;;;;;;5071608;28;19916;-28
2023/03/27 14:07:43;;;;;;;;;;;9.00;57.50;;;;;;5074774;28;19912;-29
2023/03/27 14:10:18;;;;;;;;;;;8.90;58.10;;;;;;5075490;28;19992;-34
2023/03/27 14:12:53;;;;;;;;;;;8.90;58.90;;;;;;5075613;28;19974;-27
2023/03/27 14:15:37;;;;;;;;;;;8.90;59.10;;;;;;5075608;28;19981;-33
2023/03/27 14:18:03;;;;;;;;;;;8.90;59.30;;;;;;5075378;28;19955;-28
2023/03/27 14:20:44;;;;;;;;;;;8.80;57.40;;;;;;5075471;28;19917;-35
2023/03/27 14:23:13;;;;;;;;;;;8.70;58.00;;;;;;5075501;28;19921;-34
2023/03/27 14:25:42;;;;;;;;;;;8.70;59.10;;;;;;5075487;28;19920;-30
2023/03/27 14:28:24;;;;;;;;;;;8.80;58.60;;;;;;5075687;28;20229;-34
2023/03/27 14:30:52;;;;;;;;;;;8.80;59.00;;;;;;5075264;28;19970;-39
2023/03/27 14:33:18;;;;;;;;;;;8.70;60.00;;;;;;5075194;28;20375;-33
2023/03/27 14:35:45;;;;;;;;;;;8.80;59.60;;;;;;5075321;28;20372;-30
2023/03/27 14:38:37;;;;;;;;;;;8.80;60.90;;;;;;5075004;28;19919;-29
2023/03/27 14:41:04;;;;;;;;;;;8.90;61.10;;;;;;5074663;28;19912;-29
2023/03/27 14:43:30;;;;;;;;;;;9.00;59.20;;;;;;5074885;28;19982;-34
2023/03/27 14:46:05;;;;;;;;;;;9.10;59.30;;;;;;5074869;28;19962;-26